createdAt,value
2018-09-18T00:01:49.724Z,13.09
2018-09-18T00:04:17.816Z,13.07
2018-09-18T00:06:45.912Z,13.02
2018-09-18T00:09:14.033Z,13.04
2018-09-18T00:11:42.151Z,13.05
2018-09-18T00:14:10.222Z,13.06
2018-09-18T00:16:38.366Z,13.01
2018-09-18T00:19:06.644Z,12.94
2018-09-18T00:21:34.769Z,12.85
2018-09-18T00:24:02.918Z,12.89
2018-09-18T00:26:31.098Z,12.86
2018-09-18T00:28:59.372Z,12.90
2018-09-18T00:31:27.481Z,12.89
2018-09-18T00:33:55.608Z,12.92
2018-09-18T00:36:23.795Z,12.87
2018-09-18T00:38:51.944Z,12.88
2018-09-18T00:41:20.077Z,12.86
2018-09-18T00:43:48.205Z,12.78
2018-09-18T00:46:16.427Z,12.85
2018-09-18T00:48:44.562Z,12.90
2018-09-18T00:51:12.704Z,12.97
2018-09-18T00:53:40.904Z,13.04
2018-09-18T00:56:09.043Z,13.00
2018-09-18T00:58:37.144Z,13.14
2018-09-18T01:01:05.350Z,13.28
2018-09-18T01:03:33.522Z,13.31
2018-09-18T01:06:01.667Z,13.41
2018-09-18T01:08:29.853Z,13.49
2018-09-18T01:10:57.979Z,13.48
2018-09-18T01:13:26.125Z,13.52
2018-09-18T01:15:54.264Z,13.57
2018-09-18T01:18:22.461Z,13.63
2018-09-18T01:20:50.616Z,13.63
2018-09-18T01:23:18.733Z,13.68
2018-09-18T01:25:47.497Z,13.67
2018-09-18T01:28:15.601Z,13.67
2018-09-18T01:30:43.761Z,13.63
2018-09-18T01:33:11.932Z,13.72
2018-09-18T01:35:40.057Z,13.75
2018-09-18T01:38:08.232Z,13.82
2018-09-18T01:40:36.452Z,13.96
2018-09-18T01:43:04.600Z,14.00
2018-09-18T01:45:32.728Z,14.00
2018-09-18T01:48:00.889Z,13.98
2018-09-18T01:50:29.073Z,14.05
2018-09-18T01:52:57.214Z,14.01
2018-09-18T01:55:25.332Z,14.27
2018-09-18T01:57:53.563Z,14.36
2018-09-18T02:00:21.668Z,14.55
2018-09-18T02:02:49.815Z,14.67
2018-09-18T02:05:17.953Z,14.79
2018-09-18T02:07:46.104Z,14.85
2018-09-18T02:10:14.257Z,14.86
2018-09-18T02:12:42.431Z,14.82
2018-09-18T02:15:10.608Z,14.79
2018-09-18T02:17:38.755Z,14.92
2018-09-18T02:20:07.569Z,14.96
2018-09-18T02:22:35.710Z,14.94
2018-09-18T02:25:03.829Z,15.00
2018-09-18T02:27:32.109Z,15.02
2018-09-18T02:30:00.245Z,14.98
2018-09-18T02:32:28.391Z,14.92
2018-09-18T02:34:56.609Z,14.92
2018-09-18T02:37:24.860Z,14.51
2018-09-18T02:39:53.028Z,14.49
2018-09-18T02:42:21.733Z,14.60
2018-09-18T02:44:50.213Z,14.63
2018-09-18T02:47:18.677Z,14.65
2018-09-18T02:49:47.014Z,14.63
2018-09-18T02:52:15.153Z,14.65
2018-09-18T02:54:43.296Z,14.65
2018-09-18T02:57:11.473Z,14.68
2018-09-18T02:59:39.641Z,14.69
2018-09-18T03:02:08.033Z,14.59
2018-09-18T03:04:36.195Z,14.47
2018-09-18T03:07:04.330Z,14.28
2018-09-18T03:09:32.484Z,14.17
2018-09-18T03:12:00.644Z,14.16
2018-09-18T03:14:28.780Z,14.15
2018-09-18T03:16:56.989Z,14.11
2018-09-18T03:19:25.185Z,14.10
2018-09-18T03:21:53.310Z,14.04
2018-09-18T03:24:21.453Z,14.02
2018-09-18T03:26:49.643Z,14.02
2018-09-18T03:29:17.777Z,13.97
2018-09-18T03:31:45.929Z,13.98
2018-09-18T03:34:14.065Z,14.03
2018-09-18T03:36:42.302Z,14.03
2018-09-18T03:39:10.420Z,13.88
2018-09-18T03:41:38.544Z,14.06
2018-09-18T03:44:06.733Z,13.97
2018-09-18T03:46:34.900Z,13.96
2018-09-18T03:49:03.053Z,14.12
2018-09-18T03:51:31.228Z,14.06
2018-09-18T03:53:59.441Z,14.04
2018-09-18T03:56:27.566Z,13.85
2018-09-18T03:58:55.704Z,13.89
2018-09-18T04:01:23.905Z,13.76
2018-09-18T04:03:52.133Z,13.67
2018-09-18T04:06:20.262Z,13.70
2018-09-18T04:08:48.411Z,13.69
2018-09-18T04:11:16.562Z,13.53
2018-09-18T04:13:44.759Z,13.48
2018-09-18T04:16:12.957Z,13.47
2018-09-18T04:18:41.106Z,13.39
2018-09-18T04:21:09.222Z,13.34
2018-09-18T04:23:37.386Z,13.26
2018-09-18T04:26:05.575Z,13.31
2018-09-18T04:28:33.741Z,13.25
2018-09-18T04:31:01.873Z,13.28
2018-09-18T04:33:29.997Z,13.23
2018-09-18T04:35:58.141Z,13.17
2018-09-18T04:38:26.343Z,13.19
2018-09-18T04:40:54.519Z,13.23
2018-09-18T04:43:22.654Z,13.24
2018-09-18T04:45:50.912Z,13.30
2018-09-18T04:48:19.184Z,13.36
2018-09-18T04:50:47.386Z,13.52
2018-09-18T04:53:15.551Z,13.66
2018-09-18T04:55:43.676Z,13.78
2018-09-18T04:58:11.853Z,13.82
2018-09-18T05:00:40.046Z,13.80
2018-09-18T05:03:08.209Z,13.74
2018-09-18T05:05:36.376Z,13.68
2018-09-18T05:08:04.605Z,13.73
2018-09-18T05:10:32.691Z,13.71
2018-09-18T05:13:00.806Z,13.71
2018-09-18T05:15:28.981Z,13.80
2018-09-18T05:17:57.131Z,13.94
2018-09-18T05:20:25.299Z,14.14
2018-09-18T05:22:53.464Z,14.14
2018-09-18T05:25:21.701Z,14.20
2018-09-18T05:27:49.852Z,14.24
2018-09-18T05:30:18.005Z,14.27
2018-09-18T05:32:46.230Z,14.22
2018-09-18T05:35:14.399Z,14.36
2018-09-18T05:37:42.522Z,14.36
2018-09-18T05:40:10.666Z,14.49
2018-09-18T05:42:38.853Z,14.50
2018-09-18T05:45:06.984Z,14.53
2018-09-18T05:47:35.156Z,14.58
2018-09-18T05:50:03.414Z,14.68
2018-09-18T05:52:31.536Z,14.71
2018-09-18T05:54:59.641Z,14.70
2018-09-18T05:57:27.762Z,14.70
2018-09-18T05:59:55.925Z,14.92
2018-09-18T06:02:24.071Z,15.00
2018-09-18T06:04:52.194Z,15.10
2018-09-18T06:07:20.319Z,15.14
2018-09-18T06:09:48.486Z,15.12
2018-09-18T06:12:17.458Z,15.24
2018-09-18T06:14:45.633Z,15.21
2018-09-18T06:17:13.802Z,15.13
2018-09-18T06:19:41.944Z,15.30
2018-09-18T06:22:10.086Z,15.32
2018-09-18T06:24:38.277Z,15.39
2018-09-18T06:27:07.344Z,15.49
2018-09-18T06:29:35.487Z,15.45
2018-09-18T06:32:03.705Z,15.36
2018-09-18T06:34:31.841Z,15.54
2018-09-18T06:36:59.994Z,15.66
2018-09-18T06:39:28.133Z,15.77
2018-09-18T06:41:56.271Z,16.00
2018-09-18T06:44:24.392Z,15.91
2018-09-18T06:46:52.537Z,16.00
2018-09-18T06:49:20.770Z,16.15
2018-09-18T06:51:48.890Z,16.38
2018-09-18T06:54:17.009Z,16.36
2018-09-18T06:56:45.173Z,16.48
2018-09-18T06:59:13.311Z,16.58
2018-09-18T07:01:41.454Z,16.56
2018-09-18T07:04:09.609Z,16.72
2018-09-18T07:06:37.745Z,16.86
2018-09-18T07:09:07.233Z,16.89
2018-09-18T07:11:35.401Z,17.12
2018-09-18T07:14:03.579Z,17.31
2018-09-18T07:16:31.690Z,17.24
2018-09-18T07:18:59.856Z,17.43
2018-09-18T07:21:28.001Z,17.61
2018-09-18T07:23:56.124Z,17.71
2018-09-18T07:26:24.276Z,17.89
2018-09-18T07:28:52.393Z,18.04
2018-09-18T07:31:20.546Z,18.22
2018-09-18T07:33:48.888Z,18.26
2018-09-18T07:36:16.973Z,18.46
2018-09-18T07:38:45.170Z,18.36
2018-09-18T07:41:13.327Z,18.59
2018-09-18T07:43:42.136Z,18.68
2018-09-18T07:46:10.284Z,18.89
2018-09-18T07:48:39.004Z,19.03
2018-09-18T07:51:09.145Z,19.19
2018-09-18T07:53:37.270Z,19.04
2018-09-18T07:56:05.427Z,19.30
2018-09-18T07:58:33.595Z,19.50
2018-09-18T08:01:01.818Z,19.52
2018-09-18T08:03:29.951Z,19.70
2018-09-18T08:05:58.135Z,19.83
2018-09-18T08:08:26.286Z,20.09
2018-09-18T08:10:54.539Z,20.12
2018-09-18T08:13:22.629Z,20.18
2018-09-18T08:15:50.897Z,20.43
2018-09-18T08:18:19.064Z,20.38
2018-09-18T08:20:47.200Z,20.65
2018-09-18T08:23:15.354Z,20.79
2018-09-18T08:25:43.574Z,20.97
2018-09-18T08:28:11.677Z,20.78
2018-09-18T08:30:39.839Z,21.15
2018-09-18T08:33:08.018Z,21.19
2018-09-18T08:35:36.172Z,21.38
2018-09-18T08:38:04.298Z,21.58
2018-09-18T08:40:32.470Z,21.70
2018-09-18T08:43:00.633Z,21.97
2018-09-18T08:45:28.878Z,21.93
2018-09-18T08:47:57.008Z,22.24
2018-09-18T08:50:25.119Z,22.41
2018-09-18T08:52:53.264Z,22.53
2018-09-18T08:55:21.476Z,22.43
2018-09-18T08:57:49.613Z,22.49
2018-09-18T09:00:17.811Z,22.76
2018-09-18T09:02:46.020Z,22.82
2018-09-18T09:05:14.906Z,23.12
2018-09-18T09:07:43.098Z,22.64
2018-09-18T09:10:11.216Z,22.71
2018-09-18T09:12:39.324Z,23.04
2018-09-18T09:15:07.534Z,23.13
2018-09-18T09:17:35.600Z,23.24
2018-09-18T09:20:03.819Z,23.48
2018-09-18T09:22:31.969Z,23.49
2018-09-18T09:25:00.066Z,23.48
2018-09-18T09:27:28.207Z,23.68
2018-09-18T09:29:56.449Z,23.92
2018-09-18T09:32:24.630Z,24.14
2018-09-18T09:34:53.084Z,24.18
2018-09-18T09:37:21.304Z,24.19
2018-09-18T09:39:49.321Z,24.25
2018-09-18T09:42:17.427Z,24.53
2018-09-18T09:44:45.637Z,24.77
2018-09-18T09:47:13.878Z,24.77
2018-09-18T09:49:42.045Z,24.72
2018-09-18T09:52:10.148Z,24.94
2018-09-18T09:54:38.269Z,25.16
2018-09-18T09:57:06.428Z,25.24
2018-09-18T09:59:34.532Z,25.21
2018-09-18T10:02:07.985Z,25.27
2018-09-18T10:04:36.153Z,25.38
2018-09-18T10:07:04.299Z,25.40
2018-09-18T10:09:32.407Z,25.66
2018-09-18T10:12:00.546Z,25.79
2018-09-18T10:14:28.658Z,25.70
2018-09-18T10:16:56.809Z,25.69
2018-09-18T10:19:24.953Z,25.94
2018-09-18T10:21:53.067Z,25.96
2018-09-18T10:24:21.240Z,26.04
2018-09-18T10:26:49.457Z,26.19
2018-09-18T10:29:17.547Z,26.29
2018-09-18T10:31:45.659Z,26.39
2018-09-18T10:34:13.772Z,26.50
2018-09-18T10:36:41.898Z,26.61
2018-09-18T10:39:11.104Z,26.39
2018-09-18T10:41:39.307Z,26.40
2018-09-18T10:44:07.387Z,26.68
2018-09-18T10:46:36.014Z,26.83
2018-09-18T10:49:04.169Z,26.99
2018-09-18T10:51:32.253Z,26.89
2018-09-18T10:54:00.380Z,26.91
2018-09-18T10:56:28.471Z,27.09
2018-09-18T10:58:56.590Z,27.30
2018-09-18T11:01:24.702Z,27.53
2018-09-18T11:03:52.811Z,27.58
2018-09-18T11:06:20.968Z,27.56
2018-09-18T11:08:49.105Z,27.64
2018-09-18T11:11:17.283Z,27.87
2018-09-18T11:13:45.365Z,27.75
2018-09-18T11:16:13.562Z,27.69
2018-09-18T11:18:41.615Z,27.82
2018-09-18T11:21:09.775Z,27.84
2018-09-18T11:28:38.070Z,27.93
2018-09-18T11:31:06.206Z,27.94
2018-09-18T11:33:34.405Z,27.98
2018-09-18T11:36:02.567Z,27.91
2018-09-18T11:38:30.666Z,28.02
2018-09-18T11:40:58.778Z,28.20
2018-09-18T11:43:26.914Z,28.15
2018-09-18T11:45:55.225Z,28.18
2018-09-18T11:48:23.172Z,28.23
2018-09-18T11:50:51.308Z,28.19
2018-09-18T11:53:19.428Z,28.44
2018-09-18T11:55:47.562Z,28.68
2018-09-18T11:58:15.758Z,28.73
2018-09-18T12:00:43.821Z,28.84
2018-09-18T12:03:11.951Z,28.75
2018-09-18T12:05:40.097Z,28.71
2018-09-18T12:08:08.235Z,28.85
2018-09-18T12:10:36.377Z,28.87
2018-09-18T12:13:04.519Z,28.99
2018-09-18T12:15:32.613Z,28.80
2018-09-18T12:18:00.716Z,28.97
2018-09-18T12:20:28.839Z,29.12
2018-09-18T12:22:57.011Z,29.24
2018-09-18T12:25:25.131Z,29.30
2018-09-18T12:27:54.325Z,29.39
2018-09-18T12:30:22.476Z,29.50
2018-09-18T12:32:50.627Z,29.24
2018-09-18T12:35:18.814Z,29.21
2018-09-18T12:37:46.913Z,29.26
2018-09-18T12:40:15.026Z,29.32
2018-09-18T12:42:43.150Z,29.41
2018-09-18T12:45:11.265Z,29.44
2018-09-18T12:47:39.372Z,29.72
2018-09-18T12:50:07.670Z,29.87
2018-09-18T12:52:35.648Z,29.99
2018-09-18T12:55:03.933Z,29.78
2018-09-18T12:57:32.077Z,29.86
2018-09-18T13:00:00.215Z,29.90
2018-09-18T13:02:28.307Z,29.97
2018-09-18T13:04:56.398Z,29.97
2018-09-18T13:07:24.572Z,29.88
2018-09-18T13:09:52.737Z,29.84
2018-09-18T13:12:20.792Z,29.88
2018-09-18T13:14:48.951Z,29.80
2018-09-18T13:17:17.129Z,29.98
2018-09-18T13:19:45.224Z,30.00
2018-09-18T13:22:13.329Z,30.07
2018-09-18T13:24:41.441Z,30.00
2018-09-18T13:27:09.594Z,30.12
2018-09-18T13:29:37.712Z,29.99
2018-09-18T13:32:05.846Z,30.00
2018-09-18T13:34:33.956Z,30.15
2018-09-18T13:37:02.076Z,30.12
2018-09-18T13:39:30.233Z,30.17
2018-09-18T13:41:58.325Z,30.13
2018-09-18T13:44:26.514Z,30.15
2018-09-18T13:46:54.682Z,30.12
2018-09-18T13:49:22.806Z,30.06
2018-09-18T13:51:51.036Z,30.12
2018-09-18T13:54:19.153Z,30.17
2018-09-18T13:56:47.326Z,30.10
2018-09-18T13:59:15.422Z,30.09
2018-09-18T14:01:43.836Z,30.05
2018-09-18T14:04:11.908Z,29.97
2018-09-18T14:06:39.976Z,30.05
2018-09-18T14:09:08.971Z,29.97
2018-09-18T14:11:37.448Z,30.04
2018-09-18T14:14:05.624Z,30.12
2018-09-18T14:16:33.769Z,30.17
2018-09-18T14:19:01.899Z,30.18
2018-09-18T14:21:30.037Z,30.18
2018-09-18T14:23:58.165Z,30.03
2018-09-18T14:26:26.388Z,29.91
2018-09-18T14:28:54.380Z,30.06
2018-09-18T14:31:22.549Z,30.12
2018-09-18T14:33:50.673Z,30.04
2018-09-18T14:36:19.093Z,29.90
2018-09-18T14:38:47.218Z,29.97
2018-09-18T14:41:15.320Z,29.90
2018-09-18T14:43:43.448Z,30.05
2018-09-18T14:46:11.562Z,30.02
2018-09-18T14:48:39.706Z,30.00
2018-09-18T14:51:07.826Z,29.85
2018-09-18T14:53:36.004Z,29.89
2018-09-18T14:56:04.147Z,30.09
2018-09-18T14:58:32.272Z,30.15
2018-09-18T15:01:00.577Z,29.96
2018-09-18T15:03:28.700Z,29.96
2018-09-18T15:05:56.817Z,29.96
2018-09-18T15:08:26.160Z,29.83
2018-09-18T15:10:54.298Z,29.83
2018-09-18T15:13:22.441Z,29.79
2018-09-18T15:15:50.550Z,29.76
2018-09-18T15:18:18.682Z,29.85
2018-09-18T15:20:46.797Z,29.81
2018-09-18T15:23:14.922Z,29.78
2018-09-18T15:25:43.076Z,29.87
2018-09-18T15:28:11.223Z,29.80
2018-09-18T15:30:39.343Z,29.77
2018-09-18T15:33:07.504Z,29.71
2018-09-18T15:35:35.639Z,29.72
2018-09-18T15:38:03.781Z,29.60
2018-09-18T15:40:31.939Z,29.47
2018-09-18T15:43:00.091Z,29.39
2018-09-18T15:45:28.295Z,29.25
2018-09-18T15:47:56.416Z,29.40
2018-09-18T15:50:24.574Z,29.42
2018-09-18T15:52:52.705Z,29.57
2018-09-18T15:55:20.866Z,29.44
2018-09-18T15:57:49.006Z,29.37
2018-09-18T16:00:17.110Z,29.21
2018-09-18T16:02:45.209Z,29.12
2018-09-18T16:05:13.309Z,28.79
2018-09-18T16:07:41.438Z,28.87
2018-09-18T16:10:09.598Z,28.80
2018-09-18T16:12:37.737Z,28.88
2018-09-18T16:15:05.973Z,28.78
2018-09-18T16:17:34.191Z,28.74
2018-09-18T16:20:02.373Z,28.57
2018-09-18T16:22:30.502Z,28.46
2018-09-18T16:24:58.618Z,28.56
2018-09-18T16:27:26.759Z,28.37
2018-09-18T16:29:54.931Z,28.09
2018-09-18T16:32:23.037Z,28.17
2018-09-18T16:34:51.153Z,28.17
2018-09-18T16:37:19.274Z,28.10
2018-09-18T16:39:47.428Z,27.96
2018-09-18T16:42:15.513Z,27.81
2018-09-18T16:44:43.647Z,27.71
2018-09-18T16:47:11.770Z,27.54
2018-09-18T16:49:39.882Z,27.52
2018-09-18T16:54:36.209Z,26.99
2018-09-18T16:57:04.302Z,26.93
2018-09-18T16:59:32.460Z,26.83
2018-09-18T17:02:00.603Z,26.71
2018-09-18T17:04:28.706Z,26.68
2018-09-18T17:06:56.801Z,26.61
2018-09-18T17:09:25.097Z,26.56
2018-09-18T17:11:53.173Z,26.44
2018-09-18T17:14:21.309Z,26.00
2018-09-18T17:16:49.428Z,25.80
2018-09-18T17:19:17.657Z,25.69
2018-09-18T17:21:45.804Z,25.62
2018-09-18T17:24:13.900Z,25.43
2018-09-18T17:26:42.020Z,25.10
2018-09-18T17:29:10.163Z,25.43
2018-09-18T17:31:38.299Z,25.47
2018-09-18T17:34:06.471Z,25.38
2018-09-18T17:36:34.613Z,25.19
2018-09-18T17:39:02.770Z,25.27
2018-09-18T17:41:30.955Z,25.18
2018-09-18T17:43:59.018Z,24.94
2018-09-18T17:46:27.107Z,24.85
2018-09-18T17:48:55.256Z,24.62
2018-09-18T17:51:23.380Z,24.52
2018-09-18T17:53:51.512Z,24.33
2018-09-18T17:56:19.655Z,24.26
2018-09-18T17:58:47.745Z,24.14
2018-09-18T18:01:15.877Z,23.92
2018-09-18T18:03:44.003Z,23.56
2018-09-18T18:06:12.102Z,23.36
2018-09-18T18:08:40.223Z,23.30
2018-09-18T18:11:08.348Z,23.20
2018-09-18T18:13:36.519Z,23.06
2018-09-18T18:16:04.635Z,22.87
2018-09-18T18:18:32.756Z,22.75
2018-09-18T18:21:00.857Z,22.70
2018-09-18T18:23:29.302Z,22.54
2018-09-18T18:25:57.449Z,22.54
2018-09-18T18:28:25.607Z,22.41
2018-09-18T18:30:53.758Z,22.34
2018-09-18T18:33:21.901Z,22.20
2018-09-18T18:35:50.041Z,22.13
2018-09-18T18:38:18.148Z,21.99
2018-09-18T18:40:46.291Z,21.92
2018-09-18T18:43:14.457Z,21.85
2018-09-18T18:45:42.583Z,21.81
2018-09-18T18:48:10.828Z,21.71
2018-09-18T18:50:38.809Z,21.68
2018-09-18T18:53:06.962Z,21.63
2018-09-18T18:55:35.096Z,21.69
2018-09-18T18:58:03.221Z,21.57
2018-09-18T19:00:31.373Z,21.48
2018-09-18T19:02:59.468Z,21.43
2018-09-18T19:05:27.590Z,21.41
2018-09-18T19:07:55.772Z,21.28
2018-09-18T19:10:23.882Z,21.27
2018-09-18T19:12:52.009Z,21.14
2018-09-18T19:15:20.121Z,21.18
2018-09-18T19:17:48.246Z,21.06
2018-09-18T19:20:16.346Z,21.01
2018-09-18T19:22:44.538Z,20.98
2018-09-18T19:25:12.670Z,20.86
2018-09-18T19:27:40.839Z,20.78
2018-09-18T19:30:08.948Z,20.75
2018-09-18T19:32:37.080Z,20.71
2018-09-18T19:35:05.192Z,20.68
2018-09-18T19:37:33.298Z,20.54
2018-09-18T19:40:01.421Z,20.50
2018-09-18T19:42:29.602Z,20.44
2018-09-18T19:44:57.751Z,20.50
2018-09-18T19:47:25.881Z,20.49
2018-09-18T19:49:53.987Z,20.48
2018-09-18T19:52:22.161Z,20.41
2018-09-18T19:54:50.265Z,20.36
2018-09-18T19:57:18.381Z,20.32
2018-09-18T19:59:46.543Z,20.40
2018-09-18T20:02:14.647Z,20.43
2018-09-18T20:04:42.765Z,20.33
2018-09-18T20:07:10.909Z,20.21
2018-09-18T20:09:39.028Z,20.20
2018-09-18T20:12:07.133Z,20.13
2018-09-18T20:14:35.256Z,20.04
2018-09-18T20:17:03.405Z,19.86
2018-09-18T20:19:31.549Z,19.80
2018-09-18T20:21:59.694Z,19.85
2018-09-18T20:24:27.828Z,19.77
2018-09-18T20:26:55.955Z,19.65
2018-09-18T20:29:24.143Z,19.55
2018-09-18T20:31:52.231Z,19.45
2018-09-18T20:34:20.355Z,19.44
2018-09-18T20:36:48.474Z,19.31
2018-09-18T20:39:16.597Z,19.31
2018-09-18T20:41:44.777Z,19.30
2018-09-18T20:44:12.874Z,19.33
2018-09-18T20:46:40.982Z,19.27
2018-09-18T20:49:09.156Z,19.21
2018-09-18T20:51:37.230Z,19.01
2018-09-18T20:54:05.371Z,19.05
2018-09-18T20:56:33.523Z,19.10
2018-09-18T20:59:01.681Z,19.08
2018-09-18T21:01:29.831Z,19.01
2018-09-18T21:03:58.024Z,18.91
2018-09-18T21:06:26.142Z,18.83
2018-09-18T21:08:54.305Z,18.84
2018-09-18T21:11:22.448Z,18.89
2018-09-18T21:13:50.580Z,18.80
2018-09-18T21:16:18.671Z,18.75
2018-09-18T21:18:46.813Z,18.71
2018-09-18T21:21:14.959Z,18.67
2018-09-18T21:23:43.569Z,18.52
2018-09-18T21:26:13.220Z,18.41
2018-09-18T21:28:41.358Z,18.34
2018-09-18T21:31:09.538Z,18.23
2018-09-18T21:33:37.688Z,18.16
2018-09-18T21:36:05.825Z,18.11
2018-09-18T21:38:33.973Z,18.03
2018-09-18T21:41:02.160Z,17.91
2018-09-18T21:43:30.879Z,17.80
2018-09-18T21:45:59.057Z,17.76
2018-09-18T21:48:27.259Z,17.72
2018-09-18T21:50:55.359Z,17.70
2018-09-18T21:53:23.490Z,17.71
2018-09-18T21:55:51.643Z,17.60
2018-09-18T21:58:19.746Z,17.61
2018-09-18T22:00:47.870Z,17.53
2018-09-18T22:03:15.972Z,17.43
2018-09-18T22:05:44.120Z,17.47
2018-09-18T22:08:12.286Z,17.50
2018-09-18T22:10:40.849Z,17.46
2018-09-18T22:13:08.978Z,17.46
2018-09-18T22:15:37.208Z,17.41
2018-09-18T22:18:05.291Z,17.44
2018-09-18T22:20:33.442Z,17.35
2018-09-18T22:23:01.613Z,17.30
2018-09-18T22:25:29.770Z,17.30
2018-09-18T22:27:57.913Z,17.25
2018-09-18T22:30:26.085Z,17.26
2018-09-18T22:32:54.228Z,17.17
2018-09-18T22:35:22.369Z,16.99
2018-09-18T22:37:50.485Z,16.95
2018-09-18T22:40:18.632Z,16.88
2018-09-18T22:42:46.819Z,16.90
2018-09-18T22:45:14.949Z,16.91
2018-09-18T22:47:43.062Z,16.92
2018-09-18T22:50:11.208Z,16.82
2018-09-18T22:52:39.320Z,16.80
2018-09-18T22:55:07.531Z,16.81
2018-09-18T22:57:35.692Z,16.83
2018-09-18T23:00:03.758Z,16.86
2018-09-18T23:02:31.869Z,16.79
2018-09-18T23:04:59.982Z,16.76
2018-09-18T23:07:28.124Z,16.67
2018-09-18T23:09:56.241Z,16.64
2018-09-18T23:12:24.358Z,16.67
2018-09-18T23:14:52.492Z,16.58
2018-09-18T23:17:20.624Z,16.50
2018-09-18T23:19:48.769Z,16.45
2018-09-18T23:22:16.893Z,16.46
2018-09-18T23:24:45.055Z,16.41
2018-09-18T23:27:13.185Z,16.36
2018-09-18T23:29:41.303Z,16.36
2018-09-18T23:32:09.435Z,16.30
2018-09-18T23:34:37.627Z,16.23
2018-09-18T23:37:05.881Z,16.24
2018-09-18T23:39:33.988Z,16.13
2018-09-18T23:42:02.186Z,16.12
2018-09-18T23:44:30.301Z,16.05
2018-09-18T23:46:58.505Z,15.98
2018-09-18T23:49:26.684Z,15.89
2018-09-18T23:51:54.817Z,15.82
2018-09-18T23:54:22.951Z,15.80
2018-09-18T23:56:51.086Z,15.83
2018-09-18T23:59:19.224Z,15.78
